Time;durP1;ratioP1;P1;durP2;ratioP2;P2;SDS_P1;SDS_P2;PMS_P1;PMS_P2;Temp;Humidity;BMP_temperature;BMP_pressure;BME280_temperature;BME280_humidity;BME280_pressure;Samples;Min_cycle;Max_cycle;Signal;HPM_P1;HPM_P2
2022/08/23 00:02:02;;;;;;;4.90;3.35;;;19.80;99.90;;;;;;5025222;28;20205;-68
2022/08/23 00:04:31;;;;;;;6.18;2.95;;;19.70;99.90;;;;;;5030389;28;20199;-68
2022/08/23 00:06:59;;;;;;;3.80;2.90;;;19.70;99.90;;;;;;5034415;28;20818;-68
2022/08/23 00:09:28;;;;;;;5.50;3.20;;;19.80;99.90;;;;;;5034500;28;20207;-68
2022/08/23 00:12:03;;;;;;;6.68;2.95;;;19.70;99.90;;;;;;5034628;28;20199;-68
2022/08/23 00:14:33;;;;;;;3.13;2.78;;;19.70;99.90;;;;;;5029911;28;20219;-68
2022/08/23 00:17:00;;;;;;;6.63;3.33;;;19.70;99.90;;;;;;5034494;28;20270;-68
2022/08/23 00:19:27;;;;;;;5.88;2.95;;;19.60;99.90;;;;;;5029620;28;20262;-68
2022/08/23 00:21:56;;;;;;;5.78;2.85;;;19.50;99.90;;;;;;5033650;28;20203;-68
2022/08/23 00:24:24;;;;;;;7.50;2.90;;;19.50;99.90;;;;;;5034158;28;20203;-68
2022/08/23 00:26:57;;;;;;;6.45;3.20;;;19.50;99.90;;;;;;5029557;28;20560;-68
2022/08/23 00:29:27;;;;;;;7.93;3.25;;;19.60;99.90;;;;;;5030535;28;20303;-68
2022/08/23 00:31:54;;;;;;;5.15;2.78;;;19.60;99.90;;;;;;5027181;28;20584;-68
2022/08/23 00:34:21;;;;;;;6.45;3.10;;;19.50;99.90;;;;;;5022862;28;20208;-68
2022/08/23 00:36:49;;;;;;;5.22;3.00;;;19.40;99.90;;;;;;5014250;28;20205;-74
2022/08/23 00:39:16;;;;;;;5.38;3.05;;;19.40;99.90;;;;;;5026562;28;20234;-70
2022/08/23 00:41:44;;;;;;;6.88;3.97;;;19.30;99.90;;;;;;5033616;28;20188;-70
2022/08/23 00:49:52;;;;;;;7.47;3.53;;;19.30;99.90;;;;;;5018736;28;20253;-70
2022/08/23 00:52:24;;;;;;;6.45;3.47;;;19.30;99.90;;;;;;5017923;28;20575;-70
2022/08/23 00:54:53;;;;;;;6.03;3.40;;;19.10;99.90;;;;;;5033560;28;20674;-70
2022/08/23 00:57:21;;;;;;;4.75;3.30;;;19.10;99.90;;;;;;5025199;28;20573;-70
2022/08/23 00:59:49;;;;;;;6.70;3.53;;;19.10;99.90;;;;;;5032744;28;20590;-70
2022/08/23 01:02:17;;;;;;;6.72;3.17;;;19.00;99.90;;;;;;5029389;28;20642;-69
2022/08/23 01:04:51;;;;;;;6.25;3.17;;;18.90;99.90;;;;;;5033455;28;20287;-70
2022/08/23 01:07:30;;;;;;;4.75;3.22;;;18.90;99.90;;;;;;5021011;28;20205;-70
2022/08/23 01:10:02;;;;;;;10.50;3.17;;;18.80;99.90;;;;;;5022115;28;20204;-70
2022/08/23 01:12:35;;;;;;;7.50;3.50;;;18.80;99.90;;;;;;5021327;28;20566;-70
2022/08/23 01:15:08;;;;;;;5.40;3.30;;;18.80;99.90;;;;;;5024556;28;20278;-69
2022/08/23 01:17:40;;;;;;;5.63;3.50;;;18.80;99.90;;;;;;5022324;28;20211;-69
2022/08/23 01:20:10;;;;;;;7.57;3.35;;;18.80;99.90;;;;;;5027793;28;20205;-69
2022/08/23 01:22:41;;;;;;;4.15;3.75;;;18.60;99.90;;;;;;5033027;28;20204;-69
2022/08/23 01:25:12;;;;;;;5.57;3.50;;;18.50;99.90;;;;;;5032664;28;20261;-69
2022/08/23 01:27:40;;;;;;;6.32;3.97;;;18.40;99.90;;;;;;5022115;28;20196;-70
2022/08/23 01:30:10;;;;;;;4.72;3.38;;;18.30;99.90;;;;;;5033004;28;20214;-70
2022/08/23 01:32:43;;;;;;;4.22;3.78;;;18.20;99.90;;;;;;5033097;28;20200;-69
2022/08/23 01:35:11;;;;;;;3.83;3.40;;;18.20;99.90;;;;;;5032553;28;20230;-69
2022/08/23 01:37:38;;;;;;;4.90;3.60;;;18.20;99.90;;;;;;5033104;28;20200;-69
2022/08/23 01:40:07;;;;;;;6.80;4.00;;;18.10;99.90;;;;;;5032306;28;20207;-70
2022/08/23 01:42:35;;;;;;;6.32;3.63;;;18.20;99.90;;;;;;5032172;28;20203;-70
2022/08/23 01:45:02;;;;;;;6.68;4.00;;;18.10;99.90;;;;;;5033436;28;20207;-69
2022/08/23 01:47:30;;;;;;;8.57;3.70;;;18.00;99.90;;;;;;5030619;28;20211;-69
2022/08/23 01:49:57;;;;;;;4.60;3.65;;;17.90;99.90;;;;;;5028189;28;20298;-69
2022/08/23 01:52:24;;;;;;;6.22;4.45;;;17.80;99.90;;;;;;5031609;28;20697;-69
2022/08/23 01:54:51;;;;;;;5.47;4.20;;;17.80;99.90;;;;;;5021154;28;20212;-70
2022/08/23 01:57:17;;;;;;;6.82;4.28;;;17.70;99.90;;;;;;5030164;28;20210;-70
2022/08/23 01:59:46;;;;;;;4.72;4.10;;;17.80;99.90;;;;;;5028419;28;20207;-69
2022/08/23 02:02:13;;;;;;;7.90;4.32;;;17.80;99.90;;;;;;5032424;28;20218;-69
2022/08/23 02:04:40;;;;;;;8.02;4.63;;;17.60;99.90;;;;;;5020773;28;20547;-69
2022/08/23 02:07:07;;;;;;;6.07;4.22;;;17.50;99.90;;;;;;5032778;28;20214;-69
2022/08/23 02:09:34;;;;;;;6.53;4.53;;;17.40;99.90;;;;;;5026942;28;20212;-70
2022/08/23 02:12:00;;;;;;;4.90;4.07;;;17.40;99.90;;;;;;5031697;28;20609;-70
2022/08/23 02:14:27;;;;;;;5.68;4.28;;;17.20;99.90;;;;;;5031833;28;20206;-69
2022/08/23 02:16:57;;;;;;;6.20;4.00;;;17.10;99.90;;;;;;5032145;28;20278;-70
2022/08/23 02:19:25;;;;;;;7.60;4.32;;;17.20;99.90;;;;;;5032254;28;20208;-70
2022/08/23 02:21:52;;;;;;;4.93;4.00;;;17.40;99.90;;;;;;5032086;28;20200;-70
2022/08/23 02:24:21;;;;;;;7.78;4.60;;;17.30;99.90;;;;;;5031673;28;20573;-69
2022/08/23 02:26:51;;;;;;;5.18;4.43;;;17.30;99.90;;;;;;5023113;28;20200;-70
2022/08/23 02:29:20;;;;;;;4.97;3.90;;;17.20;99.90;;;;;;5032177;28;20206;-69
2022/08/23 02:31:47;;;;;;;7.88;4.50;;;17.20;99.90;;;;;;5031212;28;20215;-69
2022/08/23 02:34:17;;;;;;;5.93;4.13;;;17.10;99.90;;;;;;5031059;28;20199;-70
2022/08/23 02:36:45;;;;;;;5.80;4.03;;;17.30;99.90;;;;;;5013033;28;20221;-69
2022/08/23 02:39:13;;;;;;;6.93;3.75;;;17.30;99.90;;;;;;5024821;28;20673;-70
2022/08/23 02:41:40;;;;;;;6.18;4.00;;;17.30;99.90;;;;;;5031888;28;20571;-70
2022/08/23 02:44:07;;;;;;;5.45;4.47;;;17.30;99.90;;;;;;5032100;28;20213;-70
2022/08/23 02:46:34;;;;;;;6.43;4.00;;;17.20;99.90;;;;;;5020070;28;20643;-70
2022/08/23 02:49:01;;;;;;;5.18;3.90;;;17.20;99.90;;;;;;5015730;28;20669;-70
2022/08/23 02:51:29;;;;;;;7.65;4.07;;;17.10;99.90;;;;;;5021725;28;20562;-67
2022/08/23 02:53:56;;;;;;;5.43;4.18;;;16.70;99.90;;;;;;5030712;28;20206;-67
2022/08/23 02:56:23;;;;;;;7.22;4.78;;;16.40;99.90;;;;;;5030867;28;20216;-67
2022/08/23 02:58:51;;;;;;;8.60;4.45;;;16.40;99.90;;;;;;5031342;28;20210;-67
2022/08/23 03:01:19;;;;;;;8.32;4.30;;;16.70;99.90;;;;;;5033831;28;20222;-67
2022/08/23 03:03:46;;;;;;;7.07;4.25;;;16.80;99.90;;;;;;5028929;28;20557;-67
2022/08/23 03:06:13;;;;;;;6.57;4.00;;;16.70;99.90;;;;;;5027943;28;20202;-68
2022/08/23 03:08:41;;;;;;;6.70;4.80;;;16.70;99.90;;;;;;5034143;28;20215;-67
2022/08/23 03:11:12;;;;;;;7.25;4.80;;;16.60;99.90;;;;;;5034872;28;20298;-67
2022/08/23 03:13:39;;;;;;;5.32;4.20;;;16.60;99.90;;;;;;5033158;28;20223;-67
2022/08/23 03:16:07;;;;;;;6.63;4.68;;;16.30;99.90;;;;;;5029018;28;20681;-67
2022/08/23 03:18:38;;;;;;;6.20;4.10;;;16.30;99.90;;;;;;5035153;28;20631;-67
2022/08/23 03:21:07;;;;;;;7.00;5.03;;;16.30;99.90;;;;;;5021902;28;20219;-67
2022/08/23 03:23:34;;;;;;;5.20;4.50;;;16.30;99.90;;;;;;5016256;28;20678;-67
2022/08/23 03:26:05;;;;;;;7.22;4.43;;;16.10;99.90;;;;;;5016166;28;20201;-67
2022/08/23 03:28:34;;;;;;;9.05;5.10;;;16.10;99.90;;;;;;5015432;28;20567;-67
2022/08/23 03:31:01;;;;;;;6.60;4.78;;;16.30;99.90;;;;;;5015501;28;20211;-67
2022/08/23 03:33:27;;;;;;;5.82;4.53;;;16.10;99.90;;;;;;5016040;28;20211;-67
2022/08/23 03:35:58;;;;;;;7.95;4.85;;;16.10;99.90;;;;;;5015744;28;20224;-67
2022/08/23 03:38:25;;;;;;;5.60;4.60;;;16.20;99.90;;;;;;5015527;28;20216;-67
2022/08/23 03:40:52;;;;;;;6.95;4.45;;;16.30;99.90;;;;;;5015204;28;20204;-67
2022/08/23 03:43:21;;;;;;;7.22;4.38;;;16.50;99.90;;;;;;5014993;28;20561;-67
2022/08/23 03:45:48;;;;;;;9.10;5.28;;;16.50;99.90;;;;;;5015698;28;20212;-67
2022/08/23 03:48:15;;;;;;;6.80;4.38;;;16.50;99.90;;;;;;5015166;28;20200;-67
2022/08/23 03:50:42;;;;;;;6.93;4.32;;;16.60;99.90;;;;;;5015510;28;20212;-67
2022/08/23 03:53:09;;;;;;;7.68;4.68;;;16.70;99.90;;;;;;5013893;28;20200;-67
2022/08/23 03:55:36;;;;;;;6.63;4.65;;;16.70;99.90;;;;;;5026918;28;20585;-67
2022/08/23 03:58:03;;;;;;;6.00;4.15;;;16.70;99.90;;;;;;5034612;28;20210;-67
2022/08/23 04:00:31;;;;;;;10.05;4.85;;;16.50;99.90;;;;;;5034099;28;20212;-67
2022/08/23 04:02:59;;;;;;;6.78;5.15;;;16.50;99.90;;;;;;5021162;28;20207;-67
2022/08/23 04:05:27;;;;;;;8.68;4.82;;;16.50;99.90;;;;;;5014792;28;20209;-67
2022/08/23 04:07:54;;;;;;;6.75;4.80;;;16.50;99.90;;;;;;5015244;28;20314;-68
2022/08/23 04:10:21;;;;;;;5.28;4.50;;;16.40;99.90;;;;;;5014808;28;20659;-69
2022/08/23 04:12:48;;;;;;;9.13;4.97;;;16.40;99.90;;;;;;5025915;28;20211;-68
2022/08/23 04:15:15;;;;;;;9.93;4.30;;;16.30;99.90;;;;;;5035157;28;20773;-68
2022/08/23 04:17:43;;;;;;;9.80;4.70;;;16.30;99.90;;;;;;5034515;28;20223;-68
2022/08/23 04:20:10;;;;;;;13.02;4.68;;;16.30;99.90;;;;;;5033991;28;20214;-68
2022/08/23 04:22:38;;;;;;;7.50;5.10;;;16.10;99.90;;;;;;5034304;28;20650;-68
2022/08/23 04:25:06;;;;;;;7.03;5.50;;;16.10;99.90;;;;;;5019706;28;20212;-68
2022/08/23 04:27:32;;;;;;;5.70;4.97;;;16.20;99.90;;;;;;5014230;28;20200;-68
2022/08/23 04:29:59;;;;;;;8.35;5.10;;;16.10;99.90;;;;;;5014866;28;20204;-68
2022/08/23 04:32:26;;;;;;;13.43;5.30;;;16.20;99.90;;;;;;5014390;28;20200;-68
2022/08/23 04:34:54;;;;;;;11.82;4.68;;;16.20;99.90;;;;;;5015117;28;20693;-68
2022/08/23 04:37:22;;;;;;;8.68;5.10;;;16.30;99.90;;;;;;5014027;28;20697;-68
2022/08/23 04:42:44;;;;;;;9.25;4.80;;;16.50;99.90;;;;;;4971517;28;20525;-68
2022/08/23 04:45:13;;;;;;;7.13;5.05;;;16.90;99.90;;;;;;5018672;28;20578;-68
2022/08/23 04:47:40;;;;;;;5.93;4.40;;;17.00;99.90;;;;;;5015282;28;20205;-68
2022/08/23 04:50:09;;;;;;;8.10;4.70;;;17.10;99.90;;;;;;5014382;28;20216;-68
2022/08/23 04:52:36;;;;;;;7.10;4.40;;;17.30;99.90;;;;;;5013386;28;20545;-68
2022/08/23 04:55:03;;;;;;;8.98;4.50;;;17.60;99.90;;;;;;5027787;28;20606;-68
2022/08/23 04:57:30;;;;;;;8.05;4.50;;;17.90;99.90;;;;;;5033349;28;20227;-68
2022/08/23 04:59:57;;;;;;;4.97;4.22;;;17.90;99.90;;;;;;5033096;28;20208;-69
2022/08/23 05:02:24;;;;;;;9.63;4.13;;;18.10;99.90;;;;;;5034179;28;20700;-68
2022/08/23 05:04:50;;;;;;;9.25;4.20;;;18.00;99.90;;;;;;5033052;28;20200;-68
2022/08/23 05:07:19;;;;;;;6.57;4.57;;;17.90;99.90;;;;;;5033557;28;20204;-69
2022/08/23 05:09:45;;;;;;;10.15;4.50;;;17.90;99.90;;;;;;5030581;28;20576;-68
2022/08/23 05:12:12;;;;;;;8.55;4.85;;;18.00;99.90;;;;;;5026993;28;20518;-68
2022/08/23 05:14:39;;;;;;;7.72;4.78;;;18.00;99.90;;;;;;5019906;28;20214;-68
2022/08/23 05:17:07;;;;;;;6.00;4.20;;;18.10;99.90;;;;;;5019136;28;20687;-69
2022/08/23 05:19:33;;;;;;;7.38;4.70;;;18.20;99.90;;;;;;5015932;28;20640;-68
2022/08/23 05:22:00;;;;;;;6.05;4.15;;;18.30;99.90;;;;;;5032267;28;20199;-68
2022/08/23 05:24:28;;;;;;;7.20;4.53;;;18.30;99.90;;;;;;5024496;28;20208;-69
2022/08/23 05:26:55;;;;;;;7.88;4.40;;;18.40;99.90;;;;;;5033597;28;20198;-68
2022/08/23 05:29:22;;;;;;;6.35;3.88;;;18.50;99.90;;;;;;5025090;28;20231;-68
2022/08/23 05:31:49;;;;;;;4.50;3.75;;;18.60;99.90;;;;;;5013513;28;20208;-68
2022/08/23 05:34:16;;;;;;;3.83;3.13;;;18.70;99.90;;;;;;5013269;28;20212;-68
2022/08/23 05:36:43;;;;;;;6.05;3.90;;;18.80;99.90;;;;;;5013017;28;20615;-68
2022/08/23 05:39:09;;;;;;;7.50;3.95;;;18.90;99.90;;;;;;5012849;28;20230;-68
2022/08/23 05:41:39;;;;;;;5.65;3.47;;;19.00;99.90;;;;;;5012423;28;20215;-68
2022/08/23 05:44:05;;;;;;;5.70;3.75;;;19.10;99.90;;;;;;5012599;28;20200;-69
2022/08/23 05:46:33;;;;;;;4.03;3.63;;;19.10;99.90;;;;;;5013275;28;20211;-69
2022/08/23 05:48:59;;;;;;;6.93;4.97;;;19.20;99.90;;;;;;5027017;28;20642;-68
2022/08/23 05:51:28;;;;;;;8.02;5.07;;;19.40;99.90;;;;;;5033007;28;20203;-69
2022/08/23 05:53:59;;;;;;;4.82;4.32;;;19.30;99.90;;;;;;5032299;28;20653;-68
2022/08/23 05:56:28;;;;;;;7.60;4.40;;;19.30;99.90;;;;;;5023804;28;20216;-68
2022/08/23 05:59:00;;;;;;;6.97;4.50;;;19.40;99.90;;;;;;5013034;28;20204;-69
2022/08/23 06:01:27;;;;;;;9.15;4.25;;;19.40;99.90;;;;;;5012772;28;20204;-69
2022/08/23 06:03:54;;;;;;;6.07;4.03;;;19.40;99.90;;;;;;5012372;28;20212;-68
2022/08/23 06:06:21;;;;;;;8.20;3.85;;;19.50;99.90;;;;;;5013246;28;20545;-68
2022/08/23 06:08:49;;;;;;;7.50;4.00;;;19.60;99.90;;;;;;5012589;28;20227;-69
2022/08/23 06:11:19;;;;;;;7.05;3.90;;;19.50;99.90;;;;;;5011834;28;20227;-68
2022/08/23 06:13:48;;;;;;;6.90;3.60;;;19.70;99.90;;;;;;5012051;28;20216;-68
2022/08/23 06:16:19;;;;;;;8.75;3.90;;;20.10;99.90;;;;;;5012278;28;20204;-69
2022/08/23 06:18:47;;;;;;;6.78;3.53;;;20.30;99.90;;;;;;5019137;28;20207;-69
2022/08/23 06:21:16;;;;;;;9.07;4.57;;;20.50;99.90;;;;;;5030439;28;20204;-68
2022/08/23 06:23:45;;;;;;;8.25;3.30;;;20.70;99.90;;;;;;5031773;28;20204;-68
2022/08/23 06:26:13;;;;;;;5.75;3.35;;;21.20;99.90;;;;;;5032092;28;20212;-69
2022/08/23 06:28:41;;;;;;;4.57;3.40;;;21.30;99.90;;;;;;5030847;28;20202;-69
2022/08/23 06:31:09;;;;;;;6.05;3.25;;;21.70;99.90;;;;;;5016184;28;20627;-69
2022/08/23 06:33:38;;;;;;;5.38;3.55;;;21.80;99.90;;;;;;5024419;28;20195;-69
2022/08/23 06:36:06;;;;;;;4.38;3.15;;;22.10;99.90;;;;;;5020949;28;20207;-69
2022/08/23 06:38:34;;;;;;;3.83;3.03;;;22.10;99.90;;;;;;5014592;28;20650;-69
2022/08/23 06:41:02;;;;;;;3.05;2.70;;;22.00;99.90;;;;;;5027795;28;20262;-68
2022/08/23 06:43:30;;;;;;;7.10;3.50;;;22.00;99.90;;;;;;5015379;28;20232;-69
2022/08/23 06:46:11;;;;;;;4.53;2.97;;;22.20;99.90;;;;;;5016378;28;20219;-69
2022/08/23 06:48:39;;;;;;;4.43;2.97;;;22.20;97.30;;;;;;5005305;28;20542;-69
2022/08/23 06:51:11;;;;;;;10.18;3.50;;;22.20;92.00;;;;;;5017071;28;20674;-68
2022/08/23 06:53:38;;;;;;;6.65;3.20;;;22.20;97.70;;;;;;5027900;28;20199;-69
2022/08/23 06:56:05;;;;;;;4.55;3.03;;;22.10;93.30;;;;;;5022824;28;20207;-68
2022/08/23 06:58:32;;;;;;;4.18;2.80;;;22.10;96.30;;;;;;5024840;28;20220;-68
2022/08/23 07:01:10;;;;;;;4.45;3.00;;;22.00;93.70;;;;;;5021365;28;20196;-69
2022/08/23 07:03:37;;;;;;;5.47;3.00;;;22.00;91.40;;;;;;5030686;28;20200;-67
2022/08/23 07:06:06;;;;;;;4.65;3.13;;;21.90;95.00;;;;;;5031971;28;20262;-67
2022/08/23 07:08:33;;;;;;;7.15;3.10;;;22.00;99.60;;;;;;5031630;28;20211;-67
2022/08/23 07:11:00;;;;;;;5.30;3.20;;;22.00;95.60;;;;;;5018205;28;20577;-67
2022/08/23 07:13:27;;;;;;;4.13;2.85;;;22.00;92.20;;;;;;5012527;28;20223;-67
2022/08/23 07:15:57;;;;;;;6.13;3.25;;;22.10;93.60;;;;;;5012206;28;20681;-67
2022/08/23 07:18:25;;;;;;;5.38;3.58;;;22.30;94.80;;;;;;5011658;28;20219;-67
2022/08/23 07:20:55;;;;;;;4.38;2.70;;;22.60;96.90;;;;;;5026174;28;20196;-67
2022/08/23 07:23:24;;;;;;;3.55;2.90;;;22.50;85.30;;;;;;5030446;28;20199;-67
2022/08/23 07:25:50;;;;;;;3.85;2.70;;;22.50;95.10;;;;;;5019194;28;20193;-67
2022/08/23 07:28:17;;;;;;;5.03;2.63;;;22.70;99.90;;;;;;5031083;28;20563;-67
2022/08/23 07:30:44;;;;;;;3.65;2.75;;;22.90;99.40;;;;;;5031395;28;20215;-67
2022/08/23 07:33:11;;;;;;;6.63;3.00;;;22.90;91.80;;;;;;5031399;28;20204;-68
2022/08/23 07:35:45;;;;;;;5.72;3.20;;;23.00;92.30;;;;;;5021400;28;20208;-67
2022/08/23 07:38:12;;;;;;;5.05;2.90;;;22.90;83.50;;;;;;5025233;28;20223;-67
2022/08/23 07:40:40;;;;;;;4.28;3.10;;;22.80;84.00;;;;;;5017670;28;20632;-67
2022/08/23 07:43:07;;;;;;;3.35;2.92;;;22.80;96.00;;;;;;5021475;28;20215;-67
2022/08/23 07:45:35;;;;;;;2.83;2.45;;;22.80;92.90;;;;;;5028666;28;20204;-68
2022/08/23 07:48:02;;;;;;;6.95;3.45;;;22.90;76.40;;;;;;5025265;28;20568;-68
2022/08/23 07:50:29;;;;;;;4.35;3.10;;;22.80;74.40;;;;;;5014783;28;20585;-67
2022/08/23 07:52:56;;;;;;;6.93;3.15;;;22.90;75.90;;;;;;5016812;28;20207;-67
2022/08/23 07:55:23;;;;;;;5.15;2.92;;;22.90;70.70;;;;;;5030275;28;20210;-67
2022/08/23 07:57:51;;;;;;;5.75;2.58;;;23.00;73.70;;;;;;5034370;28;20580;-67
2022/08/23 08:00:18;;;;;;;3.58;2.60;;;23.10;72.70;;;;;;5025997;28;20199;-67
2022/08/23 08:02:45;;;;;;;4.57;2.83;;;23.20;67.10;;;;;;5023583;28;20192;-67
2022/08/23 08:05:12;;;;;;;7.15;3.33;;;23.20;63.50;;;;;;5020311;28;20612;-67
2022/08/23 08:07:39;;;;;;;3.78;2.90;;;23.10;56.90;;;;;;5025246;28;20662;-67
2022/08/23 08:10:07;;;;;;;6.05;3.80;;;23.10;59.20;;;;;;5034600;28;20207;-67
2022/08/23 08:12:34;;;;;;;3.35;2.65;;;23.20;65.70;;;;;;5034650;28;20226;-67
2022/08/23 08:15:02;;;;;;;4.40;3.20;;;23.30;54.90;;;;;;5034175;28;20204;-67
2022/08/23 08:17:29;;;;;;;5.13;2.70;;;23.40;59.90;;;;;;5034712;28;20223;-67
2022/08/23 08:19:56;;;;;;;3.05;2.50;;;23.30;53.00;;;;;;5018104;28;20208;-67
2022/08/23 08:22:22;;;;;;;5.80;2.78;;;23.20;50.80;;;;;;5027332;28;20204;-67
2022/08/23 08:24:49;;;;;;;3.35;2.53;;;23.30;41.90;;;;;;5019810;28;20199;-67
2022/08/23 08:27:16;;;;;;;4.07;2.72;;;23.20;38.80;;;;;;5030670;28;20206;-67
2022/08/23 08:29:43;;;;;;;4.97;2.47;;;23.30;39.80;;;;;;5034253;28;20211;-67
2022/08/23 08:32:11;;;;;;;4.93;2.60;;;23.30;36.40;;;;;;5029170;28;20303;-67
2022/08/23 08:34:39;;;;;;;4.80;2.60;;;23.30;34.60;;;;;;5014972;28;20681;-67
2022/08/23 08:37:06;;;;;;;5.22;2.67;;;23.30;35.50;;;;;;5014325;28;20228;-67
2022/08/23 08:39:33;;;;;;;3.60;2.28;;;23.40;32.80;;;;;;5014891;28;20235;-67
2022/08/23 08:42:17;;;;;;;3.30;2.42;;;23.30;35.20;;;;;;5013776;28;20210;-67
2022/08/23 08:44:51;;;;;;;3.65;2.65;;;23.40;29.10;;;;;;5031388;28;20208;-67
2022/08/23 08:47:25;;;;;;;3.20;2.03;;;23.50;34.80;;;;;;5021752;28;20207;-67
2022/08/23 08:49:56;;;;;;;3.33;2.60;;;23.60;42.30;;;;;;5021604;28;20196;-67
2022/08/23 08:52:26;;;;;;;4.88;2.75;;;23.50;34.40;;;;;;5022243;28;20208;-67
2022/08/23 08:55:01;;;;;;;4.93;2.60;;;23.40;29.00;;;;;;5026023;28;20203;-67
2022/08/23 08:57:32;;;;;;;3.42;2.63;;;23.50;31.10;;;;;;5030090;28;20681;-67
2022/08/23 09:00:03;;;;;;;3.17;2.38;;;23.70;35.60;;;;;;5025772;28;20294;-67
2022/08/23 09:02:33;;;;;;;2.40;2.20;;;23.70;30.60;;;;;;5040284;28;20199;-67
2022/08/23 09:05:03;;;;;;;3.47;2.67;;;23.70;32.70;;;;;;5025905;28;20200;-67
2022/08/23 09:07:43;;;;;;;6.15;2.40;;;23.70;29.30;;;;;;5032924;28;20204;-67
2022/08/23 09:10:29;;;;;;;2.58;2.10;;;23.90;30.10;;;;;;5030489;28;20301;-68
2022/08/23 09:13:13;;;;;;;5.10;2.60;;;24.30;27.50;;;;;;5027684;28;20211;-67
2022/08/23 09:15:48;;;;;;;2.70;2.45;;;25.00;17.10;;;;;;5004032;28;20206;-67
2022/08/23 09:18:17;;;;;;;3.35;2.28;;;25.20;16.40;;;;;;5009302;28;20219;-68
2022/08/23 09:20:47;;;;;;;3.50;2.10;;;25.50;17.50;;;;;;5029448;28;20196;-67
2022/08/23 09:23:20;;;;;;;3.60;2.55;;;25.50;16.50;;;;;;5021603;28;20211;-67
2022/08/23 09:25:52;;;;;;;4.05;2.47;;;26.00;18.10;;;;;;5018780;28;20200;-67
2022/08/23 09:28:19;;;;;;;3.28;2.13;;;25.90;13.60;;;;;;5030660;28;20213;-67
2022/08/23 09:30:53;;;;;;;4.70;2.42;;;25.70;9.50;;;;;;5032697;28;20203;-68
2022/08/23 09:33:23;;;;;;;4.25;2.67;;;25.90;10.20;;;;;;5025968;28;20199;-67
2022/08/23 09:36:15;;;;;;;3.83;2.10;;;26.30;9.00;;;;;;5017017;28;20191;-67
2022/08/23 09:38:52;;;;;;;3.97;2.15;;;26.10;9.40;;;;;;5031537;28;20227;-67
2022/08/23 09:41:22;;;;;;;3.53;2.40;;;26.10;4.90;;;;;;5029582;28;20203;-68
2022/08/23 09:43:49;;;;;;;4.38;2.53;;;26.70;4.80;;;;;;5027540;28;20549;-68
2022/08/23 09:46:26;;;;;;;4.38;2.45;;;26.60;2.70;;;;;;5030973;28;20231;-68
2022/08/23 09:48:57;;;;;;;7.40;2.72;;;26.50;6.00;;;;;;5022877;28;20207;-68
2022/08/23 09:51:29;;;;;;;8.32;2.40;;;26.80;8.20;;;;;;5013409;28;20208;-68
2022/08/23 09:54:05;;;;;;;2.97;2.20;;;26.90;5.00;;;;;;5023016;28;20204;-68
2022/08/23 09:56:36;;;;;;;2.65;2.00;;;27.40;1.00;;;;;;5026818;28;20227;-68
2022/08/23 09:59:19;;;;;;;2.20;1.70;;;26.90;1.00;;;;;;5026693;28;20237;-68
2022/08/23 10:01:48;;;;;;;5.65;1.92;;;27.40;1.00;;;;;;5030916;28;20203;-68
2022/08/23 10:04:23;;;;;;;2.65;1.65;;;27.80;1.00;;;;;;5019124;28;20286;-68
2022/08/23 10:06:51;;;;;;;2.65;1.80;;;27.80;1.00;;;;;;5021095;28;20192;-68
2022/08/23 10:09:25;;;;;;;4.30;1.90;;;27.30;1.00;;;;;;5021073;28;20200;-68
2022/08/23 10:11:52;;;;;;;1.65;1.55;;;27.20;1.00;;;;;;5023668;28;20562;-68
2022/08/23 10:14:21;;;;;;;2.15;1.90;;;27.70;1.00;;;;;;5031991;28;20211;-68
2022/08/23 10:17:00;;;;;;;2.47;1.77;;;28.70;1.00;;;;;;5025982;28;20658;-68
2022/08/23 10:19:38;;;;;;;4.68;1.75;;;27.90;1.00;;;;;;5028524;28;20235;-69
2022/08/23 10:22:14;;;;;;;3.67;1.63;;;28.40;1.00;;;;;;5030967;28;20223;-73
2022/08/23 10:24:46;;;;;;;2.40;1.23;;;28.10;1.00;;;;;;5029767;28;20646;-73
2022/08/23 10:30:15;;;;;;;1.88;1.13;;;27.60;1.00;;;;;;5031922;28;20211;-73
2022/08/23 10:33:00;;;;;;;1.27;1.17;;;28.30;1.00;;;;;;5014292;28;20204;-73
2022/08/23 10:35:34;;;;;;;3.50;1.40;;;28.50;1.00;;;;;;5031256;28;20218;-73
2022/08/23 10:38:34;;;;;;;1.08;1.00;;;29.30;1.00;;;;;;5028796;28;20250;-73
2022/08/23 10:41:07;;;;;;;1.40;1.00;;;28.30;1.00;;;;;;5025050;28;20625;-74
2022/08/23 10:43:41;;;;;;;1.10;0.90;;;28.10;1.00;;;;;;5031197;28;20214;-73
2022/08/23 10:46:09;;;;;;;2.13;1.42;;;27.90;1.00;;;;;;5027710;28;20203;-73
2022/08/23 10:48:48;;;;;;;1.10;1.00;;;28.90;1.00;;;;;;5025562;28;20373;-73
2022/08/23 10:51:21;;;;;;;4.50;1.25;;;28.30;1.00;;;;;;5031316;28;20719;-74
2022/08/23 10:53:55;;;;;;;1.85;1.30;;;28.90;1.00;;;;;;5031741;28;20211;-73
2022/08/23 10:56:23;;;;;;;1.27;1.17;;;28.40;1.00;;;;;;4993942;28;20209;-74
2022/08/23 10:58:52;;;;;;;3.58;1.30;;;29.10;1.00;;;;;;5011499;28;20248;-74
2022/08/23 11:01:22;;;;;;;1.50;1.27;;;29.60;1.00;;;;;;5026355;28;20677;-73
2022/08/23 11:04:01;;;;;;;2.53;1.50;;;29.90;1.00;;;;;;5032007;28;20819;-73
2022/08/23 11:06:51;;;;;;;2.40;1.02;;;29.90;1.00;;;;;;5031305;28;20948;-73
2022/08/23 11:09:53;;;;;;;1.55;1.00;;;29.60;1.00;;;;;;5023738;28;20214;-73
2022/08/23 11:12:27;;;;;;;1.10;1.00;;;29.20;1.00;;;;;;5031826;28;20252;-73
2022/08/23 11:15:19;;;;;;;1.10;1.00;;;28.70;1.00;;;;;;5024108;28;20282;-73
2022/08/23 11:17:59;;;;;;;2.45;1.13;;;29.20;1.00;;;;;;5031275;28;20199;-73
2022/08/23 11:20:58;;;;;;;1.45;1.30;;;29.20;1.00;;;;;;5021421;28;20653;-73
2022/08/23 11:23:48;;;;;;;2.25;1.52;;;29.30;1.00;;;;;;5034884;28;20201;-73
2022/08/23 11:27:04;;;;;;;1.83;1.58;;;29.70;1.00;;;;;;5020919;28;20196;-73
2022/08/23 11:29:33;;;;;;;1.40;1.25;;;30.40;1.00;;;;;;5032139;28;20199;-73
2022/08/23 11:32:22;;;;;;;3.92;1.45;;;30.60;1.00;;;;;;5031233;28;20211;-73
2022/08/23 11:34:54;;;;;;;1.65;1.23;;;29.90;1.00;;;;;;5013297;28;20207;-73
2022/08/23 11:37:47;;;;;;;2.90;1.23;;;29.30;1.00;;;;;;5034828;28;20215;-73
2022/08/23 11:40:35;;;;;;;2.00;1.20;;;29.60;1.00;;;;;;5030588;28;20572;-73
2022/08/23 11:43:07;;;;;;;2.17;1.40;;;29.00;1.00;;;;;;5029048;28;20196;-74
2022/08/23 11:45:45;;;;;;;1.25;1.08;;;28.90;1.00;;;;;;5031321;28;20765;-74
2022/08/23 11:48:16;;;;;;;3.33;1.48;;;29.50;1.00;;;;;;5030261;28;20238;-74
2022/08/23 11:51:00;;;;;;;3.75;1.42;;;29.10;1.00;;;;;;5033528;28;20208;-74
2022/08/23 11:54:00;;;;;;;3.08;1.20;;;28.90;1.00;;;;;;5018895;28;20211;-74
2022/08/23 11:56:47;;;;;;;2.03;1.20;;;29.10;1.00;;;;;;5034257;28;20207;-73
2022/08/23 11:59:33;;;;;;;3.13;1.15;;;30.20;1.00;;;;;;5004493;28;20211;-74
2022/08/23 12:02:30;;;;;;;1.20;1.15;;;29.90;1.00;;;;;;5012676;28;20203;-74
2022/08/23 12:05:00;;;;;;;2.45;1.17;;;29.20;1.00;;;;;;5034263;28;20232;-73
2022/08/23 12:07:46;;;;;;;2.25;1.20;;;28.90;1.00;;;;;;5026043;28;20558;-73
2022/08/23 12:10:16;;;;;;;1.35;1.10;;;28.90;1.00;;;;;;5026973;28;20201;-74
2022/08/23 12:12:44;;;;;;;2.80;1.30;;;29.30;1.00;;;;;;5034553;28;20291;-74
2022/08/23 12:15:12;;;;;;;2.38;1.40;;;28.70;1.00;;;;;;5033784;28;20298;-74
2022/08/23 12:18:12;;;;;;;1.27;1.10;;;28.80;1.00;;;;;;5028407;28;20787;-74
2022/08/23 12:20:40;;;;;;;1.42;1.17;;;28.70;1.00;;;;;;5032760;28;20645;-74
2022/08/23 12:23:19;;;;;;;2.20;1.48;;;29.00;1.00;;;;;;5037650;28;20668;-75
2022/08/23 12:25:46;;;;;;;2.65;1.60;;;29.30;1.00;;;;;;5034635;28;20213;-74
2022/08/23 12:28:33;;;;;;;2.67;1.52;;;29.50;1.00;;;;;;5029569;28;20676;-75
2022/08/23 12:31:08;;;;;;;1.73;1.40;;;29.00;1.00;;;;;;5029172;28;20638;-75
2022/08/23 12:33:43;;;;;;;2.92;1.77;;;28.80;1.00;;;;;;5010087;28;20209;-74
2022/08/23 12:36:16;;;;;;;2.10;1.60;;;28.70;1.00;;;;;;5007460;28;20204;-74
2022/08/23 12:38:58;;;;;;;3.63;1.20;;;28.80;1.00;;;;;;5009449;28;20239;-74
2022/08/23 12:41:28;;;;;;;1.40;1.30;;;28.80;1.00;;;;;;5008778;28;20207;-74
2022/08/23 12:44:10;;;;;;;1.88;1.13;;;28.60;1.00;;;;;;5026090;28;20204;-74
2022/08/23 12:46:40;;;;;;;3.80;1.70;;;29.20;1.00;;;;;;5028473;28;20290;-74
2022/08/23 12:49:09;;;;;;;3.47;1.70;;;29.50;1.00;;;;;;5032254;28;20208;-74
2022/08/23 12:51:41;;;;;;;1.60;1.30;;;30.20;1.00;;;;;;5029324;28;20211;-74
2022/08/23 12:54:17;;;;;;;2.45;1.30;;;30.10;1.00;;;;;;5027620;28;20212;-74
2022/08/23 12:56:46;;;;;;;1.92;1.52;;;29.60;1.00;;;;;;5024317;28;20213;-75
2022/08/23 12:59:36;;;;;;;2.30;1.30;;;29.10;1.00;;;;;;5034675;28;20614;-74
2022/08/23 13:02:05;;;;;;;2.47;1.33;;;29.30;1.00;;;;;;5032730;28;20209;-73
2022/08/23 13:04:35;;;;;;;1.58;1.42;;;28.90;1.00;;;;;;5033396;28;20204;-73
2022/08/23 13:07:06;;;;;;;3.60;1.70;;;29.30;1.00;;;;;;5016399;28;20211;-73
2022/08/23 13:09:35;;;;;;;1.70;1.45;;;29.60;1.00;;;;;;5033546;28;20199;-73
2022/08/23 13:12:03;;;;;;;3.35;1.50;;;28.90;1.00;;;;;;5030489;28;20217;-73
2022/08/23 13:14:37;;;;;;;2.63;1.15;;;29.00;1.00;;;;;;5026898;28;20321;-73
2022/08/23 13:17:17;;;;;;;1.85;1.55;;;29.30;1.00;;;;;;5010522;28;20253;-73
2022/08/23 13:19:44;;;;;;;1.95;1.17;;;29.50;1.00;;;;;;5019713;28;20223;-73
2022/08/23 13:22:21;;;;;;;2.00;1.65;;;29.40;1.00;;;;;;5029364;28;20222;-73